CYBC

Baie Comeau Airport

Baie-Comeau, Quebec, Canada
METAR CYBC 240505Z AUTO 06010G16KT 6SM -SN FEW013 BKN019 OVC070 M06/M08 A2939 RMK PRESFR SLP954
Observed Flight Rules
Jan-24 @ 05:05 UTC (6 minutes ago) Marginal Visual Flight Rules
Wind Visibility Clouds Conditions
60° at 10 knots
 Gusting to 16 knots
6 miles
  • Few at 1,300' AGL
  • Broken at 1,900' AGL
  • Overcast at 7,000' AGL
  • Light Snow
Temperatures Readings
Current -6°C / 21°F
Dewpoint -8°C / 18°F
Humidity 86%
Altimeter 29.39" Hg
Pressure 995.4 hPa
Elevation 22
METAR CYBC 240505Z AUTO 06010G16KT 6SM -SN FEW013 BKN019 OVC070 M06/M08 A2939 RMK PRESFR SLP954
Observed Flight Rules
Jan-24 @ 05:05 UTC
(6 minutes ago)
MVFR
Wind Visibility
60° at 10 knots
 Gusting to 16 knots
6 miles
Clouds
  • Few at 1,300' AGL
  • Broken at 1,900' AGL
  • Overcast at 7,000' AGL
Conditions
  • Light Snow
Temperature Dewpoint
-6°C / 21°F -8°C / 18°F
Humidity Altimeter Pressure
86% 29.39" Hg 995.4 hPa